Kitty C — 2EIQ6 — position and weather

sailwx.info

Track history (hours):
 
Tides and Currents Weather Stations Pressure Air Temp Water Temp Dewpoint Dewpoint Depression Visibility Wind Speed Wind Dir Waves Ship Positions

Kitty C

Last reported at 2016-Dec-02 14:33 UTC. Time now 2016-Dec-04 03:56 UTC.
Position N 43°13' E 003°51'.

Length 106 m; draft 4.4 m.

Type: Cargo ship. MMSI: 235085464.

Date/timePositionNaut miles runAvg speedWind from/ knotsBaromVisibWave heightAir tempDewpointWater temp
2016-Dec-02 14:33N 43°13' E 003°51'  
2016-Nov-29 14:32N 39°30' W 000°10'8 4.1
2016-Nov-29 12:29N 39°23' W 000°17'2 1.6
2016-Nov-29 11:23N 39°23' W 000°14'9210.0
2016-Nov-29 02:12N 39°11' E 001°43'710.2
2016-Nov-29 01:33N 39°10' E 001°52'1010.1
2016-Nov-29 00:33N 39°08' E 002°04'1010.0
2016-Nov-28 23:32N 39°07' E 002°17'1010.0
2016-Nov-28 22:33N 39°05' E 002°30'1010.1
2016-Nov-28 21:33N 39°03' E 002°43'1010.0
2016-Nov-28 20:33N 39°02' E 002°55'1010.1
2016-Nov-28 19:33N 39°00' E 003°08'1010.1
2016-Nov-28 18:32N 38°58' E 003°21'51310.3
2016-Nov-26 16:34N 36°54' E 013°53'1010.4
2016-Nov-26 15:34N 36°50' E 014°05'1010.3
2016-Nov-26 14:34N 36°46' E 014°17'1010.3
2016-Nov-26 13:33N 36°41' E 014°28'1010.2
2016-Nov-26 12:33N 36°37' E 014°40'  
Track history (hours):
 
Tides and Currents Weather Stations Pressure Air Temp Water Temp Dewpoint Dewpoint Depression Visibility Wind Speed Wind Dir Waves Ship Positions

Kitty C

Last reported at 2016-Dec-02 14:33 UTC. Time now 2016-Dec-04 03:56 UTC.
Position N 43°13' E 003°51'.

Length 106 m; draft 4.4 m.

Type: Cargo ship. MMSI: 235085464.

Date/timePositionNaut miles runAvg speedWind from/ knotsBaromVisibWave heightAir tempDewpointWater temp
2016-Dec-02 14:33N 43°13' E 003°51'  
2016-Nov-29 14:32N 39°30' W 000°10'8 4.1
2016-Nov-29 12:29N 39°23' W 000°17'2 1.6
2016-Nov-29 11:23N 39°23' W 000°14'9210.0
2016-Nov-29 02:12N 39°11' E 001°43'710.2
2016-Nov-29 01:33N 39°10' E 001°52'1010.1
2016-Nov-29 00:33N 39°08' E 002°04'1010.0
2016-Nov-28 23:32N 39°07' E 002°17'1010.0
2016-Nov-28 22:33N 39°05' E 002°30'1010.1
2016-Nov-28 21:33N 39°03' E 002°43'1010.0
2016-Nov-28 20:33N 39°02' E 002°55'1010.1
2016-Nov-28 19:33N 39°00' E 003°08'1010.1
2016-Nov-28 18:32N 38°58' E 003°21'51310.3
2016-Nov-26 16:34N 36°54' E 013°53'1010.4
2016-Nov-26 15:34N 36°50' E 014°05'1010.3
2016-Nov-26 14:34N 36°46' E 014°17'1010.3
2016-Nov-26 13:33N 36°41' E 014°28'1010.2
2016-Nov-26 12:33N 36°37' E 014°40'  

Dump ship's entire track history